METAR Data
IDs: Format: Raw Decoded Include TAF

Data at: 1457 UTC 10 Aug 2022

KVNY 101451Z 00000KT 10SM CLR 26/12 A3001 RMK AO2 SLP150 T02560117 53012
KVNY 101351Z 00000KT 10SM CLR 23/11 A3000 RMK AO2 SLP146 T02330111
KVNY 101251Z 00000KT 10SM CLR 23/12 A2997 RMK AO2 SLP137 T02330117
KVNY 101151Z AUTO 00000KT 10SM CLR 24/12 A2997 RMK AO2 SLP138 T02390117 10272 20233 55000
KVNY 101051Z 14003KT 10SM CLR 24/11 A2997 RMK AO2 SLP136 T02440111
KVNY 100951Z 10003KT 9SM CLR 25/11 A2997 RMK AO2 SLP136 T02500106
KVNY 100851Z 00000KT 10SM CLR 26/09 A2997 RMK AO2 SLP137 T02560094 51001
KVNY 100751Z 08003KT 10SM CLR 26/09 A2997 RMK AO2 SLP136 T02610089 403720233
KVNY 100651Z 09005KT 10SM CLR 27/08 A2998 RMK AO2 SLP139 T02670083
KVNY 100551Z 10006KT 10SM CLR 27/08 A2997 RMK AO2 SLP137 T02720083 10356 20272 51024
KVNY 100451Z 12004KT 10SM CLR 28/08 A2995 RMK AO2 SLP132 T02830083
KVNY 100351Z 12005KT 10SM CLR 29/07 A2992 RMK AO2 SLP120 T02940067
KVNY 100251Z 13007KT 10SM CLR 32/06 A2990 RMK AO2 SLP112 T03170056 53007
KVNY 100151Z 14009KT 10SM CLR 33/07 A2988 RMK AO2 SLP106 T03280067
KVNY 100051Z 14011KT 10SM CLR 34/05 A2987 RMK AO2 SLP104 T03440050
KVNY 092351Z 14011KT 10SM CLR 36/06 A2988 RMK AO2 SLP105 T03610056 10372 20322 56015
KVNY 092251Z 15011KT 10SM CLR 37/04 A2989 RMK AO2 SLP109 T03670039
KVNY 092151Z 18011KT 10SM CLR 36/05 A2990 RMK AO2 SLP113 T03560050
KVNY 092051Z 14009KT 10SM CLR 36/05 A2992 RMK AO2 SLP119 T03610050 58011
KVNY 091951Z 16008KT 10SM CLR 35/07 A2994 RMK AO2 SLP125 T03500072
KVNY 091851Z 19010KT 10SM CLR 34/09 A2995 RMK AO2 SLP129 T03440094
KVNY 091751Z 19006KT 10SM CLR 33/13 A2995 RMK AO2 SLP131 T03280128 10333 20233 50002
KVNY 091651Z 16004KT 10SM CLR 31/11 A2995 RMK AO2 SLP132 T03110106
KVNY 091551Z VRB03KT 10SM CLR 29/13 A2995 RMK AO2 SLP132 T02940128
KVNY 091451Z 00000KT 10SM CLR 26/15 A2995 RMK AO2 SLP129 T02610150 53011
KVNY 091351Z 00000KT 10SM CLR 24/14 A2994 RMK AO2 SLP126 T02440144
KVNY 091251Z 00000KT 10SM CLR 24/14 A2992 RMK AO2 SLP122 T02440144
KVNY 091151Z AUTO 00000KT 10SM CLR 24/14 A2991 RMK AO2 SLP118 T02390144 10272 20239 58001
KVNY 091051Z AUTO 00000KT 10SM CLR 24/14 A2992 RMK AO2 SLP119 T02440139
KVNY 090951Z AUTO 11003KT 10SM CLR 25/14 A2991 RMK AO2 SLP117 T02500139
KVNY 090851Z AUTO 09003KT 10SM CLR 26/14 A2992 RMK AO2 SLP119 T02560144 58004
KVNY 090751Z AUTO 12003KT 10SM CLR 26/13 A2993 RMK AO2 SLP124 T02610133 403610228
KVNY 090651Z AUTO 10006KT 10SM CLR 27/12 A2993 RMK AO2 SLP126 T02670122
KVNY 090551Z 10005KT 10SM CLR 27/13 A2993 RMK AO2 SLP124 T02670128 10339 20267 50015
KVNY 090451Z 10007KT 10SM CLR 27/13 A2993 RMK AO2 SLP125 T02720128
KVNY 090351Z 11005KT 10SM CLR 28/14 A2990 RMK AO2 SLP115 T02830139